sensor_id;sensor_type;location;lat;lon;timestamp;P1;durP1;ratioP1;P2;durP2;ratioP2
41946;SDS011;27638;42.184;24.848;2023-12-07T00:00:02;36.25;;;18.00;;
41946;SDS011;27638;42.184;24.848;2023-12-07T00:02:28;43.83;;;20.42;;
41946;SDS011;27638;42.184;24.848;2023-12-07T00:04:53;36.30;;;19.67;;
41946;SDS011;27638;42.184;24.848;2023-12-07T00:07:19;37.00;;;18.98;;
41946;SDS011;27638;42.184;24.848;2023-12-07T00:09:44;36.22;;;19.38;;
41946;SDS011;27638;42.184;24.848;2023-12-07T00:12:10;32.03;;;17.33;;
41946;SDS011;27638;42.184;24.848;2023-12-07T00:14:35;39.38;;;18.15;;
41946;SDS011;27638;42.184;24.848;2023-12-07T00:17:01;34.33;;;16.95;;
41946;SDS011;27638;42.184;24.848;2023-12-07T00:19:27;30.88;;;16.83;;
41946;SDS011;27638;42.184;24.848;2023-12-07T00:21:52;33.30;;;16.58;;
41946;SDS011;27638;42.184;24.848;2023-12-07T00:24:18;34.22;;;17.55;;
41946;SDS011;27638;42.184;24.848;2023-12-07T00:26:43;31.40;;;18.27;;
41946;SDS011;27638;42.184;24.848;2023-12-07T00:29:09;35.20;;;18.85;;
41946;SDS011;27638;42.184;24.848;2023-12-07T00:31:34;38.92;;;20.08;;
41946;SDS011;27638;42.184;24.848;2023-12-07T00:34:00;35.95;;;19.17;;
41946;SDS011;27638;42.184;24.848;2023-12-07T00:36:25;33.80;;;17.58;;
41946;SDS011;27638;42.184;24.848;2023-12-07T00:38:51;31.92;;;17.90;;
41946;SDS011;27638;42.184;24.848;2023-12-07T00:41:16;33.33;;;18.45;;
41946;SDS011;27638;42.184;24.848;2023-12-07T00:43:42;35.58;;;20.02;;
41946;SDS011;27638;42.184;24.848;2023-12-07T00:46:07;32.28;;;17.33;;
41946;SDS011;27638;42.184;24.848;2023-12-07T00:48:33;31.75;;;16.92;;
41946;SDS011;27638;42.184;24.848;2023-12-07T00:50:58;36.80;;;15.75;;
41946;SDS011;27638;42.184;24.848;2023-12-07T00:53:24;34.30;;;16.27;;
41946;SDS011;27638;42.184;24.848;2023-12-07T00:55:49;37.03;;;18.88;;
41946;SDS011;27638;42.184;24.848;2023-12-07T00:58:15;39.20;;;17.73;;
41946;SDS011;27638;42.184;24.848;2023-12-07T01:00:40;34.67;;;17.85;;
41946;SDS011;27638;42.184;24.848;2023-12-07T01:03:05;33.85;;;16.58;;
41946;SDS011;27638;42.184;24.848;2023-12-07T01:05:31;32.25;;;16.05;;
41946;SDS011;27638;42.184;24.848;2023-12-07T01:07:57;43.88;;;20.42;;
41946;SDS011;27638;42.184;24.848;2023-12-07T01:10:22;109.93;;;52.45;;
41946;SDS011;27638;42.184;24.848;2023-12-07T01:12:48;58.80;;;29.55;;
41946;SDS011;27638;42.184;24.848;2023-12-07T01:15:14;37.72;;;18.60;;
41946;SDS011;27638;42.184;24.848;2023-12-07T01:17:39;36.00;;;18.35;;
41946;SDS011;27638;42.184;24.848;2023-12-07T01:20:05;33.08;;;17.05;;
41946;SDS011;27638;42.184;24.848;2023-12-07T01:22:42;25.77;;;14.45;;
41946;SDS011;27638;42.184;24.848;2023-12-07T01:25:07;27.80;;;14.52;;
41946;SDS011;27638;42.184;24.848;2023-12-07T01:27:33;23.60;;;14.07;;
41946;SDS011;27638;42.184;24.848;2023-12-07T01:29:59;27.83;;;13.98;;
41946;SDS011;27638;42.184;24.848;2023-12-07T01:32:24;32.53;;;16.70;;
41946;SDS011;27638;42.184;24.848;2023-12-07T01:34:50;34.92;;;18.52;;
41946;SDS011;27638;42.184;24.848;2023-12-07T01:37:15;45.35;;;24.38;;
41946;SDS011;27638;42.184;24.848;2023-12-07T01:39:41;44.05;;;21.15;;
41946;SDS011;27638;42.184;24.848;2023-12-07T01:42:08;45.25;;;22.85;;
41946;SDS011;27638;42.184;24.848;2023-12-07T01:44:34;46.83;;;24.10;;
41946;SDS011;27638;42.184;24.848;2023-12-07T01:47:00;47.28;;;21.85;;
41946;SDS011;27638;42.184;24.848;2023-12-07T01:49:27;46.22;;;22.55;;
41946;SDS011;27638;42.184;24.848;2023-12-07T01:51:53;41.92;;;20.73;;
41946;SDS011;27638;42.184;24.848;2023-12-07T01:54:19;36.97;;;19.20;;
41946;SDS011;27638;42.184;24.848;2023-12-07T01:56:45;43.50;;;20.83;;
41946;SDS011;27638;42.184;24.848;2023-12-07T01:59:10;32.60;;;16.70;;
41946;SDS011;27638;42.184;24.848;2023-12-07T02:01:36;30.60;;;16.67;;
41946;SDS011;27638;42.184;24.848;2023-12-07T02:04:02;34.42;;;17.58;;
41946;SDS011;27638;42.184;24.848;2023-12-07T02:06:27;30.77;;;15.40;;
41946;SDS011;27638;42.184;24.848;2023-12-07T02:08:53;37.08;;;16.98;;
41946;SDS011;27638;42.184;24.848;2023-12-07T02:11:19;31.25;;;15.50;;
41946;SDS011;27638;42.184;24.848;2023-12-07T02:13:44;31.08;;;16.17;;
41946;SDS011;27638;42.184;24.848;2023-12-07T02:16:29;29.80;;;16.02;;
41946;SDS011;27638;42.184;24.848;2023-12-07T02:19:10;30.95;;;15.35;;
41946;SDS011;27638;42.184;24.848;2023-12-07T02:21:50;29.63;;;15.43;;
41946;SDS011;27638;42.184;24.848;2023-12-07T02:24:21;30.05;;;14.68;;
41946;SDS011;27638;42.184;24.848;2023-12-07T02:26:47;29.17;;;15.77;;
41946;SDS011;27638;42.184;24.848;2023-12-07T02:29:14;31.63;;;16.35;;
41946;SDS011;27638;42.184;24.848;2023-12-07T02:31:39;34.83;;;20.08;;
41946;SDS011;27638;42.184;24.848;2023-12-07T02:34:05;32.13;;;18.13;;
41946;SDS011;27638;42.184;24.848;2023-12-07T02:36:31;31.35;;;16.75;;
41946;SDS011;27638;42.184;24.848;2023-12-07T02:38:59;36.97;;;20.70;;
41946;SDS011;27638;42.184;24.848;2023-12-07T02:41:28;30.20;;;17.33;;
41946;SDS011;27638;42.184;24.848;2023-12-07T02:43:56;32.30;;;15.02;;
41946;SDS011;27638;42.184;24.848;2023-12-07T02:46:22;30.13;;;16.20;;
41946;SDS011;27638;42.184;24.848;2023-12-07T02:48:49;29.73;;;17.05;;
41946;SDS011;27638;42.184;24.848;2023-12-07T02:51:14;29.70;;;16.25;;
41946;SDS011;27638;42.184;24.848;2023-12-07T02:53:40;29.65;;;15.93;;
41946;SDS011;27638;42.184;24.848;2023-12-07T02:56:05;32.28;;;17.05;;
41946;SDS011;27638;42.184;24.848;2023-12-07T02:58:31;27.05;;;15.73;;
41946;SDS011;27638;42.184;24.848;2023-12-07T03:00:56;29.73;;;16.52;;
41946;SDS011;27638;42.184;24.848;2023-12-07T03:03:22;31.35;;;15.38;;
41946;SDS011;27638;42.184;24.848;2023-12-07T03:05:47;28.75;;;14.73;;
41946;SDS011;27638;42.184;24.848;2023-12-07T03:08:13;31.52;;;15.70;;
41946;SDS011;27638;42.184;24.848;2023-12-07T03:10:38;29.30;;;16.70;;
41946;SDS011;27638;42.184;24.848;2023-12-07T03:13:03;30.52;;;16.10;;
41946;SDS011;27638;42.184;24.848;2023-12-07T03:15:29;25.60;;;14.55;;
41946;SDS011;27638;42.184;24.848;2023-12-07T03:17:54;27.13;;;15.85;;
41946;SDS011;27638;42.184;24.848;2023-12-07T03:20:20;28.73;;;15.77;;
41946;SDS011;27638;42.184;24.848;2023-12-07T03:22:46;24.10;;;14.93;;
41946;SDS011;27638;42.184;24.848;2023-12-07T03:25:11;32.65;;;16.77;;
41946;SDS011;27638;42.184;24.848;2023-12-07T03:27:37;29.65;;;16.27;;
41946;SDS011;27638;42.184;24.848;2023-12-07T03:30:02;34.15;;;17.67;;
41946;SDS011;27638;42.184;24.848;2023-12-07T03:32:28;33.38;;;17.20;;
41946;SDS011;27638;42.184;24.848;2023-12-07T03:34:53;39.42;;;22.77;;
41946;SDS011;27638;42.184;24.848;2023-12-07T03:37:19;29.58;;;18.95;;
41946;SDS011;27638;42.184;24.848;2023-12-07T03:39:44;32.80;;;17.48;;
41946;SDS011;27638;42.184;24.848;2023-12-07T03:42:09;28.00;;;16.45;;
41946;SDS011;27638;42.184;24.848;2023-12-07T03:44:35;31.02;;;17.35;;
41946;SDS011;27638;42.184;24.848;2023-12-07T03:47:01;34.05;;;18.88;;
41946;SDS011;27638;42.184;24.848;2023-12-07T03:49:26;34.38;;;17.48;;
41946;SDS011;27638;42.184;24.848;2023-12-07T03:51:52;30.50;;;17.33;;
41946;SDS011;27638;42.184;24.848;2023-12-07T03:54:17;28.02;;;17.08;;
41946;SDS011;27638;42.184;24.848;2023-12-07T03:56:42;27.17;;;16.63;;
41946;SDS011;27638;42.184;24.848;2023-12-07T03:59:08;28.75;;;17.63;;
41946;SDS011;27638;42.184;24.848;2023-12-07T04:01:33;31.48;;;17.38;;
41946;SDS011;27638;42.184;24.848;2023-12-07T04:03:59;31.38;;;18.77;;
41946;SDS011;27638;42.184;24.848;2023-12-07T04:06:25;29.40;;;18.45;;
41946;SDS011;27638;42.184;24.848;2023-12-07T04:08:51;32.13;;;18.63;;
41946;SDS011;27638;42.184;24.848;2023-12-07T04:11:17;32.10;;;21.15;;
41946;SDS011;27638;42.184;24.848;2023-12-07T04:13:43;34.60;;;19.30;;
41946;SDS011;27638;42.184;24.848;2023-12-07T04:16:09;34.40;;;20.20;;
41946;SDS011;27638;42.184;24.848;2023-12-07T04:18:35;40.25;;;23.23;;
41946;SDS011;27638;42.184;24.848;2023-12-07T04:21:01;28.73;;;17.42;;
41946;SDS011;27638;42.184;24.848;2023-12-07T04:23:27;30.60;;;17.20;;
41946;SDS011;27638;42.184;24.848;2023-12-07T04:25:53;34.40;;;18.60;;
41946;SDS011;27638;42.184;24.848;2023-12-07T04:28:18;37.20;;;18.42;;
41946;SDS011;27638;42.184;24.848;2023-12-07T04:30:43;33.15;;;17.98;;
41946;SDS011;27638;42.184;24.848;2023-12-07T04:33:09;44.20;;;19.02;;
41946;SDS011;27638;42.184;24.848;2023-12-07T04:35:34;39.97;;;16.42;;
41946;SDS011;27638;42.184;24.848;2023-12-07T04:38:00;45.65;;;17.10;;
41946;SDS011;27638;42.184;24.848;2023-12-07T04:40:25;51.03;;;18.88;;
41946;SDS011;27638;42.184;24.848;2023-12-07T04:42:51;81.03;;;18.55;;
41946;SDS011;27638;42.184;24.848;2023-12-07T04:45:17;65.20;;;16.17;;
41946;SDS011;27638;42.184;24.848;2023-12-07T04:47:42;32.13;;;14.68;;
41946;SDS011;27638;42.184;24.848;2023-12-07T04:50:08;102.65;;;18.42;;
41946;SDS011;27638;42.184;24.848;2023-12-07T04:52:34;50.30;;;15.50;;
41946;SDS011;27638;42.184;24.848;2023-12-07T04:55:00;50.00;;;16.25;;
41946;SDS011;27638;42.184;24.848;2023-12-07T04:57:26;37.95;;;14.80;;
41946;SDS011;27638;42.184;24.848;2023-12-07T04:59:51;40.65;;;15.65;;
41946;SDS011;27638;42.184;24.848;2023-12-07T05:02:17;43.53;;;14.68;;
41946;SDS011;27638;42.184;24.848;2023-12-07T05:04:43;34.35;;;14.68;;
41946;SDS011;27638;42.184;24.848;2023-12-07T05:07:10;28.17;;;13.15;;
41946;SDS011;27638;42.184;24.848;2023-12-07T05:09:36;32.17;;;13.93;;
41946;SDS011;27638;42.184;24.848;2023-12-07T05:12:01;36.65;;;19.02;;
41946;SDS011;27638;42.184;24.848;2023-12-07T05:14:27;29.92;;;13.65;;
41946;SDS011;27638;42.184;24.848;2023-12-07T05:16:52;28.88;;;14.80;;
41946;SDS011;27638;42.184;24.848;2023-12-07T05:19:20;27.10;;;16.38;;
41946;SDS011;27638;42.184;24.848;2023-12-07T05:21:46;32.28;;;15.32;;
41946;SDS011;27638;42.184;24.848;2023-12-07T05:24:12;25.90;;;14.95;;
41946;SDS011;27638;42.184;24.848;2023-12-07T05:26:40;29.42;;;16.30;;
41946;SDS011;27638;42.184;24.848;2023-12-07T05:29:11;27.77;;;15.98;;
41946;SDS011;27638;42.184;24.848;2023-12-07T05:31:37;44.08;;;15.85;;
41946;SDS011;27638;42.184;24.848;2023-12-07T05:34:02;34.47;;;16.40;;
41946;SDS011;27638;42.184;24.848;2023-12-07T05:36:28;32.60;;;19.38;;
41946;SDS011;27638;42.184;24.848;2023-12-07T05:38:54;39.70;;;20.60;;
41946;SDS011;27638;42.184;24.848;2023-12-07T05:41:20;52.58;;;21.95;;
41946;SDS011;27638;42.184;24.848;2023-12-07T05:43:46;44.70;;;20.38;;
41946;SDS011;27638;42.184;24.848;2023-12-07T05:46:11;63.95;;;24.02;;
41946;SDS011;27638;42.184;24.848;2023-12-07T05:48:37;42.83;;;21.27;;
41946;SDS011;27638;42.184;24.848;2023-12-07T05:51:03;37.92;;;20.38;;
41946;SDS011;27638;42.184;24.848;2023-12-07T05:53:28;41.75;;;21.10;;
41946;SDS011;27638;42.184;24.848;2023-12-07T05:55:55;86.45;;;23.90;;
41946;SDS011;27638;42.184;24.848;2023-12-07T05:58:22;53.58;;;25.80;;
41946;SDS011;27638;42.184;24.848;2023-12-07T06:00:47;64.32;;;26.90;;
41946;SDS011;27638;42.184;24.848;2023-12-07T06:03:13;81.50;;;27.05;;
41946;SDS011;27638;42.184;24.848;2023-12-07T06:05:39;48.08;;;22.70;;
41946;SDS011;27638;42.184;24.848;2023-12-07T06:08:05;48.60;;;19.38;;
41946;SDS011;27638;42.184;24.848;2023-12-07T06:10:31;114.78;;;29.50;;
41946;SDS011;27638;42.184;24.848;2023-12-07T06:12:56;101.22;;;33.00;;
41946;SDS011;27638;42.184;24.848;2023-12-07T06:15:24;91.97;;;43.00;;
41946;SDS011;27638;42.184;24.848;2023-12-07T06:17:49;68.85;;;29.05;;
41946;SDS011;27638;42.184;24.848;2023-12-07T06:20:15;113.75;;;31.30;;
41946;SDS011;27638;42.184;24.848;2023-12-07T06:22:40;113.63;;;32.58;;
41946;SDS011;27638;42.184;24.848;2023-12-07T06:25:06;74.50;;;31.38;;
41946;SDS011;27638;42.184;24.848;2023-12-07T06:27:34;66.40;;;29.27;;
41946;SDS011;27638;42.184;24.848;2023-12-07T06:30:00;69.28;;;27.58;;
41946;SDS011;27638;42.184;24.848;2023-12-07T06:32:27;68.57;;;27.08;;
41946;SDS011;27638;42.184;24.848;2023-12-07T06:34:52;61.70;;;30.15;;
41946;SDS011;27638;42.184;24.848;2023-12-07T06:37:18;57.40;;;23.52;;
41946;SDS011;27638;42.184;24.848;2023-12-07T06:39:45;60.33;;;25.83;;
41946;SDS011;27638;42.184;24.848;2023-12-07T06:42:10;46.00;;;23.90;;
41946;SDS011;27638;42.184;24.848;2023-12-07T06:44:36;45.55;;;20.08;;
41946;SDS011;27638;42.184;24.848;2023-12-07T06:47:01;47.45;;;22.00;;
41946;SDS011;27638;42.184;24.848;2023-12-07T06:49:29;54.83;;;21.25;;
41946;SDS011;27638;42.184;24.848;2023-12-07T06:51:55;46.72;;;22.48;;
41946;SDS011;27638;42.184;24.848;2023-12-07T06:54:21;39.08;;;21.60;;
41946;SDS011;27638;42.184;24.848;2023-12-07T06:56:47;45.92;;;23.02;;
41946;SDS011;27638;42.184;24.848;2023-12-07T06:59:13;43.40;;;22.05;;
41946;SDS011;27638;42.184;24.848;2023-12-07T07:01:38;41.05;;;20.20;;
41946;SDS011;27638;42.184;24.848;2023-12-07T07:04:04;36.20;;;22.92;;
41946;SDS011;27638;42.184;24.848;2023-12-07T07:06:30;53.85;;;26.08;;
41946;SDS011;27638;42.184;24.848;2023-12-07T07:08:55;43.67;;;22.67;;
41946;SDS011;27638;42.184;24.848;2023-12-07T07:11:21;42.58;;;19.10;;
41946;SDS011;27638;42.184;24.848;2023-12-07T07:13:46;47.70;;;19.02;;
41946;SDS011;27638;42.184;24.848;2023-12-07T07:16:12;55.03;;;28.02;;
41946;SDS011;27638;42.184;24.848;2023-12-07T07:18:38;52.30;;;31.15;;
41946;SDS011;27638;42.184;24.848;2023-12-07T07:21:05;41.35;;;25.75;;
41946;SDS011;27638;42.184;24.848;2023-12-07T07:23:31;41.35;;;24.08;;
41946;SDS011;27638;42.184;24.848;2023-12-07T07:25:56;37.13;;;21.05;;
41946;SDS011;27638;42.184;24.848;2023-12-07T07:28:22;42.85;;;21.63;;
41946;SDS011;27638;42.184;24.848;2023-12-07T07:30:47;43.85;;;21.27;;
41946;SDS011;27638;42.184;24.848;2023-12-07T07:33:13;56.38;;;23.80;;
41946;SDS011;27638;42.184;24.848;2023-12-07T07:35:38;32.97;;;19.02;;
41946;SDS011;27638;42.184;24.848;2023-12-07T07:38:04;41.10;;;18.98;;
41946;SDS011;27638;42.184;24.848;2023-12-07T07:40:29;164.70;;;111.13;;
41946;SDS011;27638;42.184;24.848;2023-12-07T07:42:55;68.28;;;44.03;;
41946;SDS011;27638;42.184;24.848;2023-12-07T07:45:20;46.55;;;25.52;;
41946;SDS011;27638;42.184;24.848;2023-12-07T07:47:46;43.45;;;23.02;;
41946;SDS011;27638;42.184;24.848;2023-12-07T07:50:11;44.60;;;21.38;;
41946;SDS011;27638;42.184;24.848;2023-12-07T07:52:37;41.83;;;19.20;;
41946;SDS011;27638;42.184;24.848;2023-12-07T07:55:03;44.55;;;20.45;;
41946;SDS011;27638;42.184;24.848;2023-12-07T07:57:29;37.58;;;19.45;;
41946;SDS011;27638;42.184;24.848;2023-12-07T07:59:56;45.33;;;22.13;;
41946;SDS011;27638;42.184;24.848;2023-12-07T08:02:22;43.92;;;23.02;;
41946;SDS011;27638;42.184;24.848;2023-12-07T08:04:48;44.30;;;20.85;;
41946;SDS011;27638;42.184;24.848;2023-12-07T08:07:14;44.28;;;21.50;;
41946;SDS011;27638;42.184;24.848;2023-12-07T08:09:40;45.95;;;21.05;;
41946;SDS011;27638;42.184;24.848;2023-12-07T08:12:06;47.35;;;23.20;;
41946;SDS011;27638;42.184;24.848;2023-12-07T08:14:34;48.03;;;24.05;;
41946;SDS011;27638;42.184;24.848;2023-12-07T08:17:01;47.88;;;24.25;;
41946;SDS011;27638;42.184;24.848;2023-12-07T08:19:26;50.75;;;23.02;;
41946;SDS011;27638;42.184;24.848;2023-12-07T08:21:52;67.72;;;31.05;;
41946;SDS011;27638;42.184;24.848;2023-12-07T08:24:17;72.32;;;28.98;;
41946;SDS011;27638;42.184;24.848;2023-12-07T08:26:43;48.22;;;23.23;;
41946;SDS011;27638;42.184;24.848;2023-12-07T08:29:08;41.63;;;20.30;;
41946;SDS011;27638;42.184;24.848;2023-12-07T08:31:34;52.67;;;23.65;;
41946;SDS011;27638;42.184;24.848;2023-12-07T08:33:59;48.60;;;23.13;;
41946;SDS011;27638;42.184;24.848;2023-12-07T08:36:25;45.28;;;21.20;;
41946;SDS011;27638;42.184;24.848;2023-12-07T08:38:51;42.35;;;20.27;;
41946;SDS011;27638;42.184;24.848;2023-12-07T08:41:17;44.15;;;23.00;;
41946;SDS011;27638;42.184;24.848;2023-12-07T08:43:43;42.80;;;20.35;;
41946;SDS011;27638;42.184;24.848;2023-12-07T08:46:09;44.88;;;20.88;;
41946;SDS011;27638;42.184;24.848;2023-12-07T08:48:37;61.95;;;27.15;;
41946;SDS011;27638;42.184;24.848;2023-12-07T08:51:03;89.68;;;33.78;;
41946;SDS011;27638;42.184;24.848;2023-12-07T08:57:18;50.30;;;22.42;;
41946;SDS011;27638;42.184;24.848;2023-12-07T08:59:43;49.75;;;24.70;;
41946;SDS011;27638;42.184;24.848;2023-12-07T09:02:09;47.58;;;23.33;;
41946;SDS011;27638;42.184;24.848;2023-12-07T09:04:34;52.88;;;25.83;;
41946;SDS011;27638;42.184;24.848;2023-12-07T09:07:00;41.03;;;21.02;;
41946;SDS011;27638;42.184;24.848;2023-12-07T09:09:25;44.20;;;20.33;;
41946;SDS011;27638;42.184;24.848;2023-12-07T09:11:51;40.58;;;21.38;;
41946;SDS011;27638;42.184;24.848;2023-12-07T09:14:16;55.42;;;25.75;;
41946;SDS011;27638;42.184;24.848;2023-12-07T09:16:42;51.60;;;25.98;;
41946;SDS011;27638;42.184;24.848;2023-12-07T09:19:09;43.38;;;22.80;;
41946;SDS011;27638;42.184;24.848;2023-12-07T09:21:35;41.97;;;20.63;;
41946;SDS011;27638;42.184;24.848;2023-12-07T09:24:01;45.60;;;19.10;;
41946;SDS011;27638;42.184;24.848;2023-12-07T09:26:26;44.08;;;20.25;;
41946;SDS011;27638;42.184;24.848;2023-12-07T09:28:52;40.70;;;22.02;;
41946;SDS011;27638;42.184;24.848;2023-12-07T09:31:18;42.75;;;22.67;;
41946;SDS011;27638;42.184;24.848;2023-12-07T09:33:43;44.10;;;22.58;;
41946;SDS011;27638;42.184;24.848;2023-12-07T09:36:09;43.40;;;22.77;;
41946;SDS011;27638;42.184;24.848;2023-12-07T09:38:36;46.72;;;24.25;;
41946;SDS011;27638;42.184;24.848;2023-12-07T09:41:02;44.78;;;23.85;;
41946;SDS011;27638;42.184;24.848;2023-12-07T09:43:28;49.75;;;25.30;;
41946;SDS011;27638;42.184;24.848;2023-12-07T09:45:54;70.68;;;32.90;;
41946;SDS011;27638;42.184;24.848;2023-12-07T09:48:21;40.42;;;21.92;;
41946;SDS011;27638;42.184;24.848;2023-12-07T09:50:46;38.90;;;20.20;;
41946;SDS011;27638;42.184;24.848;2023-12-07T09:53:12;38.90;;;20.13;;
41946;SDS011;27638;42.184;24.848;2023-12-07T09:55:38;43.42;;;20.77;;
41946;SDS011;27638;42.184;24.848;2023-12-07T09:58:04;43.75;;;21.70;;
41946;SDS011;27638;42.184;24.848;2023-12-07T10:00:30;42.63;;;21.00;;
41946;SDS011;27638;42.184;24.848;2023-12-07T10:02:56;33.20;;;18.25;;
41946;SDS011;27638;42.184;24.848;2023-12-07T10:05:21;40.58;;;19.90;;
41946;SDS011;27638;42.184;24.848;2023-12-07T10:07:47;36.35;;;18.23;;
41946;SDS011;27638;42.184;24.848;2023-12-07T10:10:15;40.67;;;20.08;;
41946;SDS011;27638;42.184;24.848;2023-12-07T10:15:13;35.45;;;18.42;;
41946;SDS011;27638;42.184;24.848;2023-12-07T10:17:46;33.88;;;16.95;;
41946;SDS011;27638;42.184;24.848;2023-12-07T10:20:19;31.80;;;17.13;;
41946;SDS011;27638;42.184;24.848;2023-12-07T10:23:07;31.70;;;18.02;;
41946;SDS011;27638;42.184;24.848;2023-12-07T10:25:40;30.92;;;17.40;;
41946;SDS011;27638;42.184;24.848;2023-12-07T10:28:07;29.52;;;17.15;;
41946;SDS011;27638;42.184;24.848;2023-12-07T10:30:33;31.63;;;17.38;;
41946;SDS011;27638;42.184;24.848;2023-12-07T10:32:59;29.80;;;16.55;;
41946;SDS011;27638;42.184;24.848;2023-12-07T10:35:27;30.83;;;17.48;;
41946;SDS011;27638;42.184;24.848;2023-12-07T10:37:54;31.55;;;16.00;;
41946;SDS011;27638;42.184;24.848;2023-12-07T10:40:19;33.72;;;19.23;;
41946;SDS011;27638;42.184;24.848;2023-12-07T10:42:47;30.88;;;17.33;;
41946;SDS011;27638;42.184;24.848;2023-12-07T10:45:13;30.98;;;16.77;;
41946;SDS011;27638;42.184;24.848;2023-12-07T10:47:40;26.73;;;15.65;;
41946;SDS011;27638;42.184;24.848;2023-12-07T10:50:09;18.85;;;11.38;;
41946;SDS011;27638;42.184;24.848;2023-12-07T10:52:39;19.50;;;11.52;;
41946;SDS011;27638;42.184;24.848;2023-12-07T10:55:15;19.33;;;10.43;;
41946;SDS011;27638;42.184;24.848;2023-12-07T10:57:43;17.27;;;8.90;;
41946;SDS011;27638;42.184;24.848;2023-12-07T11:00:09;15.07;;;8.32;;
41946;SDS011;27638;42.184;24.848;2023-12-07T11:02:36;14.90;;;8.55;;
41946;SDS011;27638;42.184;24.848;2023-12-07T11:05:04;16.85;;;9.70;;
41946;SDS011;27638;42.184;24.848;2023-12-07T11:10:34;17.92;;;9.15;;
41946;SDS011;27638;42.184;24.848;2023-12-07T11:13:17;14.45;;;7.57;;
41946;SDS011;27638;42.184;24.848;2023-12-07T11:15:48;14.93;;;7.75;;
41946;SDS011;27638;42.184;24.848;2023-12-07T11:18:14;15.77;;;8.70;;
41946;SDS011;27638;42.184;24.848;2023-12-07T11:23:09;13.80;;;8.77;;
41946;SDS011;27638;42.184;24.848;2023-12-07T11:25:35;15.80;;;8.50;;
41946;SDS011;27638;42.184;24.848;2023-12-07T11:28:04;17.23;;;8.52;;
41946;SDS011;27638;42.184;24.848;2023-12-07T11:30:31;15.30;;;8.63;;
41946;SDS011;27638;42.184;24.848;2023-12-07T11:32:59;13.95;;;8.25;;
41946;SDS011;27638;42.184;24.848;2023-12-07T11:35:25;12.85;;;7.13;;
41946;SDS011;27638;42.184;24.848;2023-12-07T11:38:10;16.80;;;7.72;;
41946;SDS011;27638;42.184;24.848;2023-12-07T11:40:40;13.02;;;7.38;;
41946;SDS011;27638;42.184;24.848;2023-12-07T11:43:06;14.57;;;6.50;;
41946;SDS011;27638;42.184;24.848;2023-12-07T11:45:42;13.98;;;6.53;;
41946;SDS011;27638;42.184;24.848;2023-12-07T11:48:14;9.68;;;5.63;;
41946;SDS011;27638;42.184;24.848;2023-12-07T11:51:23;11.75;;;6.82;;
41946;SDS011;27638;42.184;24.848;2023-12-07T11:53:30;12.35;;;7.10;;
41946;SDS011;27638;42.184;24.848;2023-12-07T11:55:56;11.48;;;7.05;;
41946;SDS011;27638;42.184;24.848;2023-12-07T11:58:29;10.43;;;5.80;;
41946;SDS011;27638;42.184;24.848;2023-12-07T12:00:55;10.05;;;6.03;;
41946;SDS011;27638;42.184;24.848;2023-12-07T12:03:25;23.10;;;16.73;;
41946;SDS011;27638;42.184;24.848;2023-12-07T12:05:51;19.77;;;13.43;;
41946;SDS011;27638;42.184;24.848;2023-12-07T12:08:18;17.83;;;10.80;;
41946;SDS011;27638;42.184;24.848;2023-12-07T12:10:44;23.60;;;15.02;;
41946;SDS011;27638;42.184;24.848;2023-12-07T12:13:11;16.52;;;10.07;;
41946;SDS011;27638;42.184;24.848;2023-12-07T12:15:37;11.00;;;5.75;;
41946;SDS011;27638;42.184;24.848;2023-12-07T12:18:04;9.57;;;5.22;;
41946;SDS011;27638;42.184;24.848;2023-12-07T12:20:30;11.73;;;6.10;;
41946;SDS011;27638;42.184;24.848;2023-12-07T12:22:57;10.23;;;6.03;;
41946;SDS011;27638;42.184;24.848;2023-12-07T12:25:24;12.30;;;6.32;;
41946;SDS011;27638;42.184;24.848;2023-12-07T12:27:53;75.35;;;36.65;;
41946;SDS011;27638;42.184;24.848;2023-12-07T12:30:20;13.13;;;7.25;;
41946;SDS011;27638;42.184;24.848;2023-12-07T12:32:48;11.60;;;6.28;;
41946;SDS011;27638;42.184;24.848;2023-12-07T12:35:14;11.25;;;6.70;;
41946;SDS011;27638;42.184;24.848;2023-12-07T12:37:42;11.60;;;5.68;;
41946;SDS011;27638;42.184;24.848;2023-12-07T12:40:10;8.35;;;5.65;;
41946;SDS011;27638;42.184;24.848;2023-12-07T12:42:36;10.73;;;6.53;;
41946;SDS011;27638;42.184;24.848;2023-12-07T12:45:03;12.15;;;6.53;;
41946;SDS011;27638;42.184;24.848;2023-12-07T12:47:29;12.93;;;6.93;;
41946;SDS011;27638;42.184;24.848;2023-12-07T12:49:55;15.93;;;9.32;;
41946;SDS011;27638;42.184;24.848;2023-12-07T12:52:20;15.05;;;6.65;;
41946;SDS011;27638;42.184;24.848;2023-12-07T12:54:46;14.07;;;7.03;;
41946;SDS011;27638;42.184;24.848;2023-12-07T12:57:13;12.95;;;7.50;;
41946;SDS011;27638;42.184;24.848;2023-12-07T12:59:39;17.17;;;9.75;;
41946;SDS011;27638;42.184;24.848;2023-12-07T13:02:04;16.48;;;8.95;;
41946;SDS011;27638;42.184;24.848;2023-12-07T13:04:30;57.75;;;21.98;;
41946;SDS011;27638;42.184;24.848;2023-12-07T13:06:56;45.08;;;19.52;;
41946;SDS011;27638;42.184;24.848;2023-12-07T13:09:22;21.15;;;10.68;;
41946;SDS011;27638;42.184;24.848;2023-12-07T13:11:48;15.15;;;7.75;;
41946;SDS011;27638;42.184;24.848;2023-12-07T13:14:14;25.00;;;17.20;;
41946;SDS011;27638;42.184;24.848;2023-12-07T13:16:39;14.10;;;7.78;;
41946;SDS011;27638;42.184;24.848;2023-12-07T13:19:05;11.40;;;6.20;;
41946;SDS011;27638;42.184;24.848;2023-12-07T13:21:32;12.23;;;6.15;;
41946;SDS011;27638;42.184;24.848;2023-12-07T13:23:57;11.68;;;6.60;;
41946;SDS011;27638;42.184;24.848;2023-12-07T13:26:23;10.15;;;5.97;;
41946;SDS011;27638;42.184;24.848;2023-12-07T13:28:49;9.50;;;6.15;;
41946;SDS011;27638;42.184;24.848;2023-12-07T13:31:14;11.90;;;6.18;;
41946;SDS011;27638;42.184;24.848;2023-12-07T13:33:40;14.07;;;6.72;;
41946;SDS011;27638;42.184;24.848;2023-12-07T13:36:07;14.80;;;7.13;;
41946;SDS011;27638;42.184;24.848;2023-12-07T13:38:32;13.05;;;6.03;;
41946;SDS011;27638;42.184;24.848;2023-12-07T13:40:59;13.90;;;6.68;;
41946;SDS011;27638;42.184;24.848;2023-12-07T13:43:25;11.20;;;5.90;;
41946;SDS011;27638;42.184;24.848;2023-12-07T13:45:50;12.63;;;7.43;;
41946;SDS011;27638;42.184;24.848;2023-12-07T13:48:16;14.30;;;6.97;;
41946;SDS011;27638;42.184;24.848;2023-12-07T13:50:42;16.13;;;7.47;;
41946;SDS011;27638;42.184;24.848;2023-12-07T13:53:08;17.35;;;8.82;;
41946;SDS011;27638;42.184;24.848;2023-12-07T13:55:37;22.70;;;12.85;;
41946;SDS011;27638;42.184;24.848;2023-12-07T13:58:05;23.90;;;11.82;;
41946;SDS011;27638;42.184;24.848;2023-12-07T14:00:34;25.50;;;12.82;;
41946;SDS011;27638;42.184;24.848;2023-12-07T14:03:00;21.05;;;10.77;;
41946;SDS011;27638;42.184;24.848;2023-12-07T14:05:25;18.20;;;9.85;;
41946;SDS011;27638;42.184;24.848;2023-12-07T14:07:51;18.23;;;9.30;;
41946;SDS011;27638;42.184;24.848;2023-12-07T14:10:17;15.13;;;7.78;;
41946;SDS011;27638;42.184;24.848;2023-12-07T14:12:42;16.17;;;9.30;;
41946;SDS011;27638;42.184;24.848;2023-12-07T14:15:09;18.83;;;10.23;;
41946;SDS011;27638;42.184;24.848;2023-12-07T14:17:34;23.70;;;13.20;;